Time;durP1;ratioP1;P1;durP2;ratioP2;P2;SDS_P1;SDS_P2;PMS_P1;PMS_P2;Temp;Humidity;BMP_temperature;BMP_pressure;BME280_temperature;BME280_humidity;BME280_pressure;Samples;Min_cycle;Max_cycle;Signal;HPM_P1;HPM_P2
2023/12/15 00:00:18;;;;;;;43.70;17.92;;;3.40;99.90;;;5.00;100.00;101807.44;5038533;28;20067;-80
2023/12/15 00:02:45;;;;;;;45.35;18.27;;;3.40;99.90;;;5.02;100.00;101815.41;5068956;28;20048;-80
2023/12/15 00:05:11;;;;;;;41.83;18.40;;;3.40;99.90;;;5.12;100.00;101824.31;5070492;28;20040;-80
2023/12/15 00:07:37;;;;;;;41.17;19.13;;;3.40;99.90;;;5.03;100.00;101825.22;5070148;28;20469;-80
2023/12/15 00:10:03;;;;;;;43.10;18.73;;;3.40;99.90;;;4.84;100.00;101809.97;5035460;28;20087;-80
2023/12/15 00:12:29;;;;;;;44.63;18.98;;;3.30;99.90;;;4.72;100.00;101817.41;5050724;28;20039;-80
2023/12/15 00:14:54;;;;;;;46.05;17.98;;;3.20;99.90;;;4.69;100.00;101818.56;5069280;28;20041;-80
2023/12/15 00:17:20;;;;;;;47.05;19.15;;;3.20;99.90;;;4.54;100.00;101803.84;5069570;28;20036;-80
2023/12/15 00:19:46;;;;;;;44.20;18.05;;;3.10;99.90;;;4.47;100.00;101812.53;5069501;28;20040;-80
2023/12/15 00:22:11;;;;;;;43.10;17.60;;;3.00;99.90;;;4.37;100.00;101819.81;5069295;28;20040;-79
2023/12/15 00:24:37;;;;;;;44.40;18.23;;;2.90;99.90;;;4.35;100.00;101829.94;5069754;28;20400;-80
2023/12/15 00:27:03;;;;;;;41.88;17.80;;;2.80;99.90;;;4.21;100.00;101816.88;5069573;28;20388;-80
2023/12/15 00:29:29;;;;;;;48.85;19.75;;;2.80;99.90;;;4.18;100.00;101818.88;5069663;28;20085;-80
2023/12/15 00:31:55;;;;;;;47.38;18.65;;;2.70;99.90;;;4.14;100.00;101822.03;5046214;28;20495;-80
2023/12/15 00:34:20;;;;;;;47.33;19.73;;;2.70;99.90;;;4.09;100.00;101827.84;5069343;28;20037;-79
2023/12/15 00:36:46;;;;;;;52.05;20.02;;;2.70;99.90;;;3.98;100.00;101814.53;5069536;28;20404;-80
2023/12/15 00:39:12;;;;;;;49.30;18.67;;;2.60;99.90;;;4.03;100.00;101829.28;5069358;28;20051;-80
2023/12/15 00:41:38;;;;;;;46.35;18.45;;;2.50;99.90;;;4.02;100.00;101843.78;5069373;28;20040;-80
2023/12/15 00:44:04;;;;;;;49.33;19.88;;;2.40;99.90;;;4.00;100.00;101850.34;5069140;28;20476;-80
2023/12/15 00:46:30;;;;;;;44.03;17.95;;;2.30;99.90;;;3.94;100.00;101845.50;5068969;28;20056;-80
2023/12/15 00:48:56;;;;;;;45.63;17.77;;;2.30;99.90;;;3.91;100.00;101853.88;5069427;28;20032;-80
2023/12/15 00:51:22;;;;;;;49.20;19.92;;;2.30;99.90;;;3.81;100.00;101846.66;5069483;28;20095;-80
2023/12/15 00:53:48;;;;;;;50.72;21.40;;;2.30;99.90;;;3.78;100.00;101852.34;5039679;28;20060;-80
2023/12/15 00:56:14;;;;;;;49.67;20.17;;;2.30;99.90;;;3.79;100.00;101856.75;5062999;28;20040;-80
2023/12/15 00:58:39;;;;;;;53.95;19.42;;;2.40;99.90;;;3.82;100.00;101858.28;5053546;28;20094;-80
2023/12/15 01:01:06;;;;;;;48.92;19.20;;;2.40;99.90;;;3.79;100.00;101867.53;5038229;28;20037;-79
2023/12/15 01:03:33;;;;;;;;;;;2.30;99.90;;;3.78;100.00;101875.75;5072884;28;20467;-79
2023/12/15 01:05:59;;;;;;;52.70;19.90;;;2.40;99.90;;;3.79;100.00;101864.84;5055049;28;19969;-80
2023/12/15 01:08:25;;;;;;;55.53;21.85;;;2.50;99.90;;;3.84;100.00;101870.66;5074775;28;20040;-80
2023/12/15 01:10:51;;;;;;;55.50;21.05;;;2.50;99.90;;;3.91;100.00;101872.78;5074895;28;20028;-79
2023/12/15 01:13:17;;;;;;;62.75;22.80;;;2.60;99.90;;;3.88;100.00;101865.84;5056047;28;20549;-79
2023/12/15 01:15:43;;;;;;;61.45;22.38;;;2.60;99.90;;;3.85;100.00;101863.44;5072676;28;20037;-79
2023/12/15 01:18:09;;;;;;;60.08;22.60;;;2.60;99.90;;;4.04;100.00;101892.25;5072399;28;20025;-80
2023/12/15 01:20:34;;;;;;;63.35;24.25;;;2.60;99.90;;;3.93;100.00;101892.38;5073707;28;20037;-80
2023/12/15 01:23:00;;;;;;;66.10;25.38;;;2.60;99.90;;;3.92;100.00;101891.56;5069612;28;20074;-80
2023/12/15 01:25:26;;;;;;;66.20;25.52;;;2.70;99.90;;;4.07;100.00;101900.06;5044234;28;20451;-79
2023/12/15 01:27:52;;;;;;;60.53;23.00;;;2.70;99.90;;;4.16;100.00;101903.78;5073037;28;20114;-79
2023/12/15 01:30:17;;;;;;;66.07;24.38;;;2.80;99.90;;;4.14;100.00;101906.59;5045690;28;20036;-80
2023/12/15 01:32:43;;;;;;;61.45;23.23;;;2.90;99.90;;;4.15;100.00;101894.81;5051855;28;20345;-79
2023/12/15 01:35:09;;;;;;;58.42;22.65;;;2.90;99.90;;;4.12;100.00;101911.28;5042046;28;20033;-80
2023/12/15 01:37:34;;;;;;;57.15;21.08;;;3.00;99.90;;;4.25;100.00;101902.91;5065468;28;20109;-79
2023/12/15 01:40:00;;;;;;;53.90;20.88;;;3.00;99.90;;;4.26;100.00;101910.00;5065881;28;20119;-80
2023/12/15 01:42:26;;;;;;;55.75;21.90;;;3.10;99.90;;;4.18;100.00;101897.22;5071758;28;20388;-80
2023/12/15 01:44:53;;;;;;;52.15;21.90;;;3.10;99.90;;;4.26;100.00;101909.16;5072837;28;20032;-80
2023/12/15 01:47:20;;;;;;;52.58;20.33;;;3.20;99.90;;;4.11;100.00;101896.09;5072114;28;20119;-80
2023/12/15 01:49:47;;;;;;;49.38;20.88;;;3.20;99.90;;;4.28;100.00;101905.31;5072021;28;20041;-80
2023/12/15 01:52:13;;;;;;;46.30;19.95;;;3.20;99.90;;;4.36;100.00;101901.88;5050414;28;20055;-80
2023/12/15 01:54:39;;;;;;;44.08;19.83;;;3.20;99.90;;;4.30;100.00;101902.47;5071622;28;20032;-80
2023/12/15 01:57:06;;;;;;;42.20;18.35;;;3.20;99.90;;;4.22;100.00;101913.13;5072020;28;20040;-80
2023/12/15 01:59:43;;;;;;;42.75;18.10;;;3.20;99.90;;;4.35;100.00;101908.28;5072139;28;20073;-80
2023/12/15 02:02:09;;;;;;;44.70;18.27;;;3.30;99.90;;;4.51;100.00;101914.94;5071778;28;20041;-80
2023/12/15 02:04:37;;;;;;;41.70;18.95;;;3.30;99.90;;;4.49;100.00;101925.03;5071275;28;20459;-79
2023/12/15 02:07:03;;;;;;;41.13;17.73;;;3.30;99.90;;;4.41;100.00;101905.00;5052593;28;20032;-80
2023/12/15 02:09:29;;;;;;;39.15;18.42;;;3.30;99.90;;;4.49;100.00;101916.94;5071081;28;20289;-79
2023/12/15 02:11:55;;;;;;;39.70;18.38;;;3.30;99.90;;;4.40;100.00;101910.56;5072035;28;20117;-80
2023/12/15 02:14:20;;;;;;;36.35;16.90;;;3.30;99.90;;;4.43;100.00;101905.69;5070530;28;20048;-79
2023/12/15 02:16:46;;;;;;;37.28;17.48;;;3.40;99.90;;;4.36;100.00;101904.59;5071455;28;20044;-80
2023/12/15 02:19:12;;;;;;;39.70;19.15;;;3.40;99.90;;;4.37;100.00;101900.88;5070519;28;20044;-80
2023/12/15 02:21:37;;;;;;;41.10;18.60;;;3.40;99.90;;;4.44;100.00;101911.97;5071386;28;20021;-79
2023/12/15 02:24:03;;;;;;;37.47;18.02;;;3.50;99.90;;;4.57;100.00;101911.66;5071603;28;20507;-79
2023/12/15 02:26:29;;;;;;;37.65;18.02;;;3.50;99.90;;;4.49;100.00;101903.41;5071305;28;20115;-80
2023/12/15 02:28:55;;;;;;;39.13;18.30;;;3.50;99.90;;;4.36;100.00;101909.13;5052541;28;20406;-79
2023/12/15 02:31:23;;;;;;;37.67;17.30;;;3.50;99.90;;;4.60;100.00;101922.19;5071535;28;20032;-79
2023/12/15 02:33:49;;;;;;;39.38;17.48;;;3.60;99.90;;;4.60;100.00;101919.47;5042110;28;20037;-79
2023/12/15 02:36:23;;;;;;;39.25;18.33;;;3.60;99.90;;;4.64;100.00;101920.03;5074502;28;20037;-79
2023/12/15 02:38:50;;;;;;;35.92;16.60;;;3.70;99.90;;;4.64;100.00;101923.59;5071464;28;20473;-79
2023/12/15 02:41:16;;;;;;;38.10;18.43;;;3.70;99.90;;;4.65;100.00;101909.06;5070830;28;20071;-79
2023/12/15 02:43:42;;;;;;;36.67;17.42;;;3.70;99.90;;;4.67;100.00;101917.88;5070877;28;20476;-79
2023/12/15 02:46:08;;;;;;;34.25;17.27;;;3.70;99.90;;;4.66;100.00;101910.78;5071082;28;20123;-79
2023/12/15 02:48:34;;;;;;;38.60;17.58;;;3.70;99.90;;;4.74;100.00;101924.41;5070538;28;20028;-79
2023/12/15 02:51:00;;;;;;;37.42;18.17;;;3.70;99.90;;;4.57;100.00;101908.97;5070619;28;20203;-79
2023/12/15 02:53:36;;;;;;;36.58;17.92;;;3.70;99.90;;;4.64;100.00;101911.91;5070698;28;20037;-79
2023/12/15 02:56:02;;;;;;;37.45;17.30;;;3.70;99.90;;;4.48;100.00;101897.16;5070875;28;20067;-79
2023/12/15 02:58:28;;;;;;;37.88;17.30;;;3.70;99.90;;;4.71;100.00;101924.69;5047630;28;20056;-79
2023/12/15 03:00:53;;;;;;;35.90;16.90;;;3.70;99.90;;;4.61;100.00;101922.03;5070607;28;20392;-79
2023/12/15 03:03:19;;;;;;;39.85;18.73;;;3.70;99.90;;;4.45;100.00;101914.50;5070516;28;20049;-79
2023/12/15 03:05:45;;;;;;;37.97;17.05;;;3.80;99.90;;;4.75;100.00;101926.09;5070721;28;20035;-79
2023/12/15 03:08:10;;;;;;;35.88;16.80;;;3.80;99.90;;;4.69;100.00;101920.47;5069875;28;20064;-78
2023/12/15 03:10:36;;;;;;;37.00;17.92;;;3.80;99.90;;;4.78;100.00;101927.69;5071018;28;20028;-79
2023/12/15 03:13:02;;;;;;;38.85;16.85;;;3.80;99.90;;;4.69;100.00;101931.28;5045287;28;20036;-78
2023/12/15 03:15:28;;;;;;;36.92;17.67;;;3.80;99.90;;;4.75;100.00;101934.22;5070053;28;20040;-79
2023/12/15 03:17:54;;;;;;;36.03;17.40;;;3.80;99.90;;;4.51;100.00;101906.81;5070547;28;20115;-79
2023/12/15 03:20:19;;;;;;;36.28;16.95;;;3.80;99.90;;;4.67;100.00;101930.56;5070064;28;20032;-78
2023/12/15 03:22:45;;;;;;;38.50;18.35;;;3.70;99.90;;;4.68;100.00;101935.81;5070108;28;20040;-80
2023/12/15 03:25:11;;;;;;;38.42;17.02;;;3.70;99.90;;;4.59;100.00;101936.69;5069675;28;20395;-77
2023/12/15 03:27:37;;;;;;;41.55;17.45;;;3.70;99.90;;;4.50;100.00;101942.94;5069448;28;20043;-80
2023/12/15 03:30:03;;;;;;;39.95;17.52;;;3.70;99.90;;;4.60;100.00;101928.44;5052576;28;20041;-80
2023/12/15 03:32:28;;;;;;;34.92;16.33;;;3.70;99.90;;;4.36;100.00;101910.00;5036335;28;20052;-78
2023/12/15 03:34:54;;;;;;;40.72;18.25;;;3.70;99.90;;;4.54;100.00;101928.19;5037885;28;20499;-78
2023/12/15 03:37:20;;;;;;;37.97;16.85;;;3.60;99.90;;;4.51;100.00;101929.31;5069227;28;20078;-79
2023/12/15 03:39:45;;;;;;;39.40;17.48;;;3.60;99.90;;;4.47;100.00;101927.91;5069852;28;20032;-79
2023/12/15 03:42:11;;;;;;;39.78;17.52;;;3.60;99.90;;;4.45;100.00;101941.53;5069709;28;20491;-79
2023/12/15 03:44:39;;;;;;;36.72;16.48;;;3.60;99.90;;;4.41;100.00;101923.06;5069189;28;20060;-79
2023/12/15 03:47:07;;;;;;;39.88;17.80;;;3.60;99.90;;;4.52;100.00;101936.41;5069890;28;20097;-79
2023/12/15 03:49:34;;;;;;;37.25;17.40;;;3.60;99.90;;;4.54;100.00;101928.19;5068719;28;20108;-79
2023/12/15 03:52:00;;;;;;;40.78;17.20;;;3.60;99.90;;;4.58;100.00;101940.41;5068750;28;20028;-79
2023/12/15 03:54:26;;;;;;;39.42;17.23;;;3.60;99.90;;;4.50;100.00;101938.41;5070312;28;20124;-79
2023/12/15 03:56:56;;;;;;;40.22;16.95;;;3.70;99.90;;;4.52;100.00;101947.22;5052101;28;20089;-78
2023/12/15 03:59:23;;;;;;;38.58;17.58;;;3.70;99.90;;;4.64;100.00;101939.81;5070008;28;20353;-79
2023/12/15 04:01:49;;;;;;;38.50;17.65;;;3.70;99.90;;;4.70;100.00;101941.91;5069935;28;20033;-79
2023/12/15 04:04:14;;;;;;;41.30;17.95;;;3.70;99.90;;;4.67;100.00;101950.31;5069629;28;20847;-79
2023/12/15 04:06:40;;;;;;;37.42;15.95;;;3.80;99.90;;;4.71;100.00;101951.72;5071064;28;20064;-79
2023/12/15 04:09:09;;;;;;;35.08;15.80;;;3.80;99.90;;;4.69;100.00;101947.50;5038213;28;20055;-79
2023/12/15 04:11:36;;;;;;;38.15;18.08;;;3.80;99.90;;;4.79;100.00;101958.28;5069337;28;20059;-80
2023/12/15 04:14:02;;;;;;;39.85;17.25;;;3.80;99.90;;;4.97;100.00;101961.91;5067645;28;20452;-80
2023/12/15 04:16:28;;;;;;;38.05;16.38;;;3.80;99.90;;;4.83;100.00;101940.75;5069907;28;20024;-80
2023/12/15 04:18:54;;;;;;;42.40;18.20;;;3.80;99.90;;;4.98;100.00;101957.38;5067526;28;20396;-79
2023/12/15 04:21:20;;;;;;;40.42;17.95;;;3.80;99.90;;;5.01;100.00;101963.31;5069732;28;20480;-79
2023/12/15 04:23:46;;;;;;;38.55;17.08;;;3.80;99.90;;;5.06;100.00;101957.47;5068431;28;20040;-79
2023/12/15 04:26:11;;;;;;;41.45;18.27;;;3.90;99.90;;;4.87;100.00;101961.09;5064949;28;20036;-80
2023/12/15 04:28:37;;;;;;;41.70;17.23;;;3.90;99.90;;;5.01;100.00;101960.59;5050964;28;20055;-80
2023/12/15 04:31:03;;;;;;;40.97;17.95;;;3.90;99.90;;;5.03;100.00;101964.03;5045025;28;20036;-79
2023/12/15 04:33:29;;;;;;;43.20;18.60;;;3.90;99.90;;;5.04;100.00;101976.56;5069270;28;20134;-80
2023/12/15 04:35:54;;;;;;;44.47;17.70;;;3.90;99.90;;;4.89;100.00;101965.34;5070647;28;20380;-80
2023/12/15 04:38:20;;;;;;;40.35;17.38;;;4.00;99.90;;;4.91;100.00;101976.03;5073576;28;20032;-80
2023/12/15 04:40:46;;;;;;;41.22;18.55;;;4.00;99.90;;;4.93;100.00;101963.22;5072090;28;20047;-80
2023/12/15 04:43:12;;;;;;;35.17;16.70;;;4.00;99.90;;;4.97;100.00;101967.31;5073505;28;20040;-79
2023/12/15 04:45:38;;;;;;;41.63;17.83;;;4.00;99.90;;;5.03;100.00;101964.03;5072788;28;20063;-80
2023/12/15 04:48:04;;;;;;;42.00;18.42;;;4.00;99.90;;;4.95;100.00;101963.91;5073035;28;20443;-80
2023/12/15 04:50:30;;;;;;;40.78;17.23;;;4.00;99.90;;;4.97;100.00;101956.50;5072659;28;20040;-80
2023/12/15 04:52:56;;;;;;;37.60;16.45;;;4.00;99.90;;;4.97;100.00;101961.91;5073402;28;20365;-80
2023/12/15 04:55:21;;;;;;;43.88;18.10;;;4.00;99.90;;;5.05;100.00;101969.28;5052937;28;20048;-81
2023/12/15 04:57:47;;;;;;;44.88;18.40;;;4.00;99.90;;;5.24;100.00;101970.22;5045174;28;20037;-80
2023/12/15 05:00:13;;;;;;;45.35;18.80;;;4.10;99.90;;;5.09;100.00;101964.44;5039098;28;20484;-79
2023/12/15 05:02:39;;;;;;;47.10;19.38;;;4.10;99.90;;;5.09;100.00;101959.03;5049664;28;20531;-80
2023/12/15 05:05:07;;;;;;;51.63;19.55;;;4.10;99.90;;;5.01;100.00;101968.72;5074484;28;20110;-80
2023/12/15 05:07:32;;;;;;;45.78;17.92;;;4.10;99.90;;;5.17;100.00;101981.66;5042149;28;20052;-79
2023/12/15 05:09:58;;;;;;;46.25;19.55;;;4.10;99.90;;;5.16;100.00;101979.09;5068356;28;20033;-80
2023/12/15 05:12:24;;;;;;;55.50;20.67;;;4.10;99.90;;;5.13;100.00;101982.91;5073232;28;20360;-80
2023/12/15 05:14:49;;;;;;;46.60;19.20;;;4.10;99.90;;;4.86;100.00;101960.22;5072754;28;20116;-78
2023/12/15 05:17:17;;;;;;;50.42;20.35;;;4.10;99.90;;;5.10;100.00;101980.50;5071964;28;20029;-79
2023/12/15 05:19:43;;;;;;;49.88;19.33;;;4.10;99.90;;;5.16;100.00;101984.50;5051176;28;20037;-80
2023/12/15 05:22:08;;;;;;;49.25;21.48;;;4.20;99.90;;;5.13;100.00;101971.25;5071292;28;20042;-80
2023/12/15 05:24:34;;;;;;;47.28;19.55;;;4.20;99.90;;;5.22;100.00;101974.94;5069033;28;20029;-79
2023/12/15 05:27:01;;;;;;;51.17;20.00;;;4.20;99.90;;;5.10;100.00;101972.41;5028548;28;20303;-80
2023/12/15 05:29:26;;;;;;;53.75;20.80;;;4.20;99.90;;;5.09;100.00;101984.22;5048386;28;20033;-80
2023/12/15 05:31:52;;;;;;;53.55;21.13;;;4.10;99.90;;;5.01;100.00;101984.97;5071997;28;20079;-79
2023/12/15 05:34:18;;;;;;;49.58;20.77;;;4.10;99.90;;;5.11;100.00;101989.50;5041596;28;20488;-80
2023/12/15 05:36:43;;;;;;;53.92;20.52;;;4.20;99.90;;;5.18;100.00;101983.34;5072297;28;20032;-79
2023/12/15 05:39:09;;;;;;;50.90;20.70;;;4.20;99.90;;;5.19;100.00;101978.78;5051959;28;20032;-78
2023/12/15 05:41:42;;;;;;;47.05;20.63;;;4.20;99.90;;;5.32;100.00;101984.72;5050598;28;20055;-79
2023/12/15 05:44:08;;;;;;;50.00;21.67;;;4.20;99.90;;;5.37;100.00;101997.78;5071504;28;20463;-78
2023/12/15 05:46:35;;;;;;;58.10;22.55;;;4.20;99.90;;;5.26;100.00;102004.25;5071597;28;20500;-78
2023/12/15 05:49:01;;;;;;;55.70;21.65;;;4.20;99.90;;;5.37;100.00;101994.25;5069666;28;20047;-79
2023/12/15 05:51:27;;;;;;;54.67;22.60;;;4.30;99.90;;;5.28;100.00;102004.09;5061881;28;20388;-77
2023/12/15 05:53:52;;;;;;;57.35;21.75;;;4.30;99.90;;;5.30;100.00;102004.81;5023390;28;20095;-78
2023/12/15 05:56:18;;;;;;;57.25;23.38;;;4.30;99.90;;;5.29;100.00;102013.94;5071505;28;20036;-78
2023/12/15 05:58:44;;;;;;;52.70;21.33;;;4.30;99.90;;;5.18;100.00;102014.97;5046740;28;20052;-78
2023/12/15 06:01:10;;;;;;;55.08;22.58;;;4.30;99.90;;;5.12;100.00;101981.22;5069229;28;20040;-78
2023/12/15 06:03:36;;;;;;;57.20;22.33;;;4.30;99.90;;;5.37;100.00;102019.44;5071473;28;20048;-78
2023/12/15 06:06:02;;;;;;;56.00;22.95;;;4.30;99.90;;;5.32;100.00;102014.50;5071813;28;20089;-79
2023/12/15 06:08:27;;;;;;;51.45;21.65;;;4.30;99.90;;;5.20;100.00;102018.38;5048274;28;20123;-79
2023/12/15 06:10:53;;;;;;;57.67;22.70;;;4.40;99.90;;;5.30;100.00;102019.19;5071036;28;20090;-79
2023/12/15 06:13:19;;;;;;;62.55;24.35;;;4.40;99.90;;;5.22;100.00;102032.59;5070057;28;20040;-80
2023/12/15 06:15:44;;;;;;;59.60;23.27;;;4.40;99.90;;;5.19;100.00;102024.78;5072009;28;20051;-81
2023/12/15 06:18:10;;;;;;;60.47;24.40;;;4.40;99.90;;;5.24;100.00;102017.06;5071236;28;20077;-81
2023/12/15 06:20:36;;;;;;;57.53;22.25;;;4.40;99.90;;;5.08;100.00;102014.16;5071492;28;20044;-80
2023/12/15 06:23:02;;;;;;;67.10;23.73;;;4.40;99.90;;;5.29;100.00;102020.19;5070647;28;20037;-78
2023/12/15 06:25:27;;;;;;;61.13;23.77;;;4.40;99.90;;;5.25;100.00;101999.00;5044337;28;20040;-79
2023/12/15 06:27:53;;;;;;;63.55;24.38;;;4.40;99.90;;;5.41;100.00;102038.94;5071553;28;20389;-79
2023/12/15 06:30:19;;;;;;;64.57;24.65;;;4.50;99.90;;;5.47;100.00;102041.06;5054025;28;20405;-78
2023/12/15 06:32:45;;;;;;;60.88;24.40;;;4.50;99.90;;;5.48;100.00;102034.63;5036702;28;20547;-80
2023/12/15 06:35:10;;;;;;;66.50;23.75;;;4.50;99.90;;;5.40;100.00;102016.44;5064336;28;20048;-79
2023/12/15 06:37:36;;;;;;;59.50;23.73;;;4.50;99.90;;;5.44;100.00;102023.28;5068575;28;20036;-79
2023/12/15 06:40:03;;;;;;;59.42;23.85;;;4.60;99.90;;;5.60;100.00;102054.25;5071005;28;20158;-79
2023/12/15 06:42:29;;;;;;;57.80;22.13;;;4.60;99.90;;;5.67;100.00;102059.94;5049023;28;20139;-80
2023/12/15 06:44:55;;;;;;;55.65;21.42;;;4.60;99.90;;;5.64;100.00;102044.00;5050787;28;20505;-80
2023/12/15 06:47:21;;;;;;;62.35;23.45;;;4.70;99.90;;;5.67;100.00;102051.81;5049064;28;20119;-80
2023/12/15 06:49:47;;;;;;;49.72;22.00;;;4.70;99.90;;;5.72;100.00;102054.91;5073457;28;20040;-80
2023/12/15 06:52:13;;;;;;;56.22;23.23;;;4.70;99.90;;;5.75;100.00;102060.88;5038052;28;20040;-80
2023/12/15 06:54:39;;;;;;;54.67;22.05;;;4.70;99.90;;;5.79;100.00;102068.72;5070481;28;20062;-80
2023/12/15 06:57:06;;;;;;;46.80;20.85;;;4.80;99.90;;;5.68;100.00;102056.22;5070663;28;20040;-81
2023/12/15 06:59:31;;;;;;;50.30;21.33;;;4.80;99.90;;;5.83;100.00;102065.53;5070595;28;20028;-81
2023/12/15 07:01:57;;;;;;;49.10;20.65;;;4.80;99.90;;;5.90;100.00;102069.38;5070350;28;20040;-81
2023/12/15 07:04:23;;;;;;;52.13;20.90;;;4.80;99.90;;;5.81;100.00;102050.44;5070041;28;20055;-81
2023/12/15 07:06:49;;;;;;;50.00;19.83;;;4.80;99.90;;;5.79;100.00;102060.59;5070759;28;20036;-81
2023/12/15 07:09:14;;;;;;;51.72;21.05;;;4.90;99.90;;;5.98;100.00;102065.91;5046798;28;20028;-82
2023/12/15 07:11:40;;;;;;;41.25;18.40;;;4.90;99.90;;;5.99;100.00;102064.91;5070544;28;20033;-83
2023/12/15 07:14:06;;;;;;;42.65;19.02;;;4.90;99.90;;;5.96;100.00;102072.47;5048747;28;20035;-82
2023/12/15 07:16:32;;;;;;;41.05;18.65;;;4.90;99.90;;;5.89;100.00;102059.53;5070385;28;20046;-82
2023/12/15 07:18:57;;;;;;;42.20;18.23;;;4.90;99.90;;;5.96;100.00;102086.84;5053383;28;20043;-82
2023/12/15 07:21:23;;;;;;;39.92;18.33;;;4.90;99.90;;;5.87;100.00;102074.22;5071122;28;20484;-82
2023/12/15 07:23:49;;;;;;;40.88;19.38;;;4.90;99.90;;;5.92;100.00;102081.91;5074997;28;20028;-82
2023/12/15 07:26:17;;;;;;;46.38;19.55;;;4.90;99.90;;;6.02;100.00;102080.00;5070452;28;20840;-82
2023/12/15 07:28:43;;;;;;;49.28;20.58;;;4.90;99.90;;;6.06;100.00;102076.00;5070144;28;20044;-82
2023/12/15 07:31:09;;;;;;;43.63;19.38;;;4.90;99.90;;;5.94;100.00;102077.19;5070038;28;20024;-82
2023/12/15 07:33:35;;;;;;;37.55;17.73;;;5.00;99.90;;;6.00;100.00;102085.56;5069150;28;20062;-80
2023/12/15 07:36:01;;;;;;;42.88;19.55;;;5.00;99.90;;;6.04;100.00;102080.72;5050523;28;20044;-82
2023/12/15 07:38:26;;;;;;;42.90;18.92;;;5.00;99.90;;;6.06;100.00;102086.00;5047958;28;20041;-83
2023/12/15 07:40:54;;;;;;;43.78;18.75;;;5.00;99.90;;;6.14;100.00;102096.91;5047415;28;20098;-82
2023/12/15 07:43:21;;;;;;;40.38;18.20;;;5.10;99.90;;;6.18;100.00;102091.06;5068852;28;20480;-82
2023/12/15 07:45:47;;;;;;;43.03;20.05;;;5.10;99.90;;;6.20;100.00;102085.47;5070508;28;20044;-83
2023/12/15 07:48:13;;;;;;;39.75;19.58;;;5.20;99.90;;;6.30;100.00;102107.97;5070404;28;20040;-82
2023/12/15 07:50:39;;;;;;;43.47;19.60;;;5.20;99.90;;;6.32;100.00;102103.22;5071209;28;20040;-84
2023/12/15 07:53:05;;;;;;;45.05;20.10;;;5.20;99.90;;;6.38;100.00;102106.31;5047752;28;20064;-82
2023/12/15 07:55:31;;;;;;;44.13;20.05;;;5.30;99.90;;;6.32;100.00;102111.38;5067946;28;20032;-82
2023/12/15 07:57:56;;;;;;;41.10;20.63;;;5.40;99.90;;;6.36;100.00;102114.59;5070257;28;20399;-83
2023/12/15 08:00:22;;;;;;;45.35;20.95;;;5.40;99.90;;;6.42;100.00;102119.44;5073471;28;20044;-82
2023/12/15 08:02:48;;;;;;;45.35;21.52;;;5.50;99.90;;;6.55;100.00;102131.75;5052307;28;20511;-82
2023/12/15 08:05:14;;;;;;;47.33;22.50;;;5.50;99.90;;;6.66;100.00;102142.38;5069775;28;20041;-82
2023/12/15 08:07:42;;;;;;;48.65;23.27;;;5.60;99.90;;;6.83;100.00;102147.94;5069718;28;20078;-82
2023/12/15 08:10:09;;;;;;;46.13;22.52;;;5.60;99.90;;;6.81;100.00;102145.41;5069937;28;20044;-82
2023/12/15 08:12:34;;;;;;;50.37;23.07;;;5.70;99.90;;;6.85;100.00;102148.66;5069409;28;20086;-80
2023/12/15 08:15:00;;;;;;;45.47;21.58;;;5.70;99.90;;;6.83;100.00;102164.22;5069572;28;20707;-80
2023/12/15 08:17:26;;;;;;;44.60;21.52;;;5.70;99.90;;;6.89;100.00;102150.03;5069623;28;20047;-80
2023/12/15 08:19:51;;;;;;;45.33;22.17;;;5.80;99.90;;;6.90;100.00;102160.75;5035678;28;20040;-79
2023/12/15 08:22:17;;;;;;;43.45;21.85;;;5.80;99.90;;;7.00;100.00;102165.22;5034773;28;20041;-81
2023/12/15 08:24:43;;;;;;;46.10;20.13;;;5.80;99.90;;;7.06;100.00;102161.91;5070535;28;20040;-80
2023/12/15 08:27:09;;;;;;;40.53;20.23;;;5.80;99.90;;;7.12;100.00;102174.00;5068611;28;20036;-81
2023/12/15 08:29:35;;;;;;;43.05;21.25;;;5.90;99.90;;;7.15;100.00;102177.25;5069210;28;20040;-82
2023/12/15 08:32:00;;;;;;;45.05;21.13;;;5.90;99.90;;;7.33;100.00;102166.34;5069713;28;20043;-79
2023/12/15 08:34:26;;;;;;;44.28;20.95;;;6.00;99.90;;;7.39;100.00;102174.88;5068918;28;20043;-80
2023/12/15 08:36:52;;;;;;;45.67;20.45;;;6.10;99.90;;;7.53;100.00;102173.44;5068036;28;20496;-80
2023/12/15 08:39:18;;;;;;;38.47;20.33;;;6.10;99.90;;;7.55;100.00;102185.00;5069242;28;20044;-80
2023/12/15 08:41:44;;;;;;;44.97;20.80;;;6.20;99.90;;;7.53;100.00;102182.47;5036827;28;20056;-80
2023/12/15 08:44:10;;;;;;;39.95;18.98;;;6.20;99.90;;;7.56;100.00;102198.44;5068314;28;20395;-81
2023/12/15 08:46:38;;;;;;;38.97;19.75;;;6.20;99.90;;;7.63;100.00;102206.81;5069301;28;20040;-81
2023/12/15 08:49:05;;;;;;;42.47;19.58;;;6.30;99.90;;;7.58;100.00;102193.69;5068883;28;20032;-81
2023/12/15 08:51:31;;;;;;;34.47;18.45;;;6.30;99.90;;;7.57;100.00;102194.72;5043393;28;20036;-80
2023/12/15 08:53:57;;;;;;;35.22;18.02;;;6.30;99.90;;;7.66;100.00;102202.91;5039903;28;20033;-81
2023/12/15 08:56:22;;;;;;;35.75;18.77;;;6.30;99.90;;;7.72;100.00;102210.44;5069749;28;20550;-81
2023/12/15 08:58:48;;;;;;;43.22;19.65;;;6.40;99.90;;;7.60;100.00;102199.81;5069791;28;20037;-81
2023/12/15 09:01:14;;;;;;;37.35;18.10;;;6.40;99.90;;;7.77;100.00;102189.91;5069211;28;20045;-81
2023/12/15 09:03:43;;;;;;;40.50;18.90;;;6.50;99.90;;;7.89;100.00;102214.94;5069568;28;20052;-81
2023/12/15 09:06:11;;;;;;;36.13;18.48;;;6.60;99.90;;;7.89;100.00;102220.38;5067896;28;20039;-80
2023/12/15 09:08:38;;;;;;;35.17;17.05;;;6.70;99.90;;;7.99;100.00;102208.56;5063102;28;20545;-81
2023/12/15 09:11:05;;;;;;;34.72;16.80;;;6.80;99.90;;;8.07;100.00;102227.63;5067645;28;20064;-81
2023/12/15 09:13:33;;;;;;;32.10;16.40;;;6.80;99.90;;;7.95;100.00;102237.06;5068219;28;20040;-80
2023/12/15 09:15:59;;;;;;;;;;;6.90;99.90;;;8.04;100.00;102247.81;5068191;28;20040;-81
2023/12/15 09:18:24;;;;;;;31.60;15.52;;;6.80;99.90;;;7.86;100.00;102234.28;5035969;28;19923;-81
2023/12/15 09:20:50;;;;;;;30.70;16.25;;;6.80;99.90;;;7.96;100.00;102255.09;5067821;28;20105;-81
2023/12/15 09:23:16;;;;;;;29.38;14.57;;;6.80;99.90;;;7.92;100.00;102260.81;5069645;28;20102;-80
2023/12/15 09:25:42;;;;;;;33.05;16.00;;;6.90;99.90;;;7.99;100.00;102265.66;5072782;28;20029;-79
2023/12/15 09:28:09;;;;;;;33.95;14.85;;;6.90;99.90;;;7.99;100.00;102268.34;5072034;28;20033;-79
2023/12/15 09:30:35;;;;;;;29.70;14.43;;;6.90;99.90;;;8.05;100.00;102267.72;5070835;28;20036;-82
2023/12/15 09:33:00;;;;;;;28.83;13.98;;;6.90;99.90;;;8.12;100.00;102279.63;5054408;28;20496;-81
2023/12/15 09:35:26;;;;;;;30.15;14.80;;;6.90;99.90;;;8.12;100.00;102262.50;5048282;28;20044;-81
2023/12/15 09:37:52;;;;;;;26.05;13.70;;;7.00;99.90;;;8.45;100.00;102279.81;5072438;28;20128;-81
2023/12/15 09:40:23;;;;;;;32.65;14.80;;;7.10;99.90;;;8.29;100.00;102263.44;5072159;28;20049;-81
2023/12/15 09:42:50;;;;;;;30.77;14.23;;;7.20;99.90;;;8.40;100.00;102303.09;5046337;28;20044;-81
2023/12/15 09:45:17;;;;;;;30.92;13.88;;;7.30;99.90;;;8.23;100.00;102302.16;5070985;28;20044;-81
2023/12/15 09:47:51;;;;;;;29.88;13.82;;;7.20;99.90;;;8.25;100.00;102320.00;5070838;28;20123;-82
2023/12/15 09:50:17;;;;;;;30.85;13.75;;;7.20;99.90;;;8.21;100.00;102329.50;5072192;28;20060;-81
2023/12/15 09:52:45;;;;;;;29.95;14.88;;;7.10;99.90;;;8.23;100.00;102340.22;5071736;28;20551;-82
2023/12/15 09:55:11;;;;;;;33.92;14.45;;;7.10;99.90;;;7.64;100.00;102330.75;5071935;28;20043;-80
2023/12/15 09:57:40;;;;;;;29.20;13.70;;;7.00;99.90;;;7.92;100.00;102344.22;5039585;28;20354;-80
2023/12/15 10:00:07;;;;;;;33.83;14.18;;;7.00;99.90;;;8.03;100.00;102346.69;5071759;28;20430;-81
2023/12/15 10:02:38;;;;;;;33.67;15.77;;;7.00;99.90;;;7.67;100.00;102335.88;5071756;28;20113;-81